Time;durP1;ratioP1;P1;durP2;ratioP2;P2;SDS_P1;SDS_P2;PMS_P1;PMS_P2;Temp;Humidity;BMP_temperature;BMP_pressure;BME280_temperature;BME280_humidity;BME280_pressure;Samples;Min_cycle;Max_cycle;Signal;HPM_P1;HPM_P2
2021/12/03 00:00:38;;;;;;;9.40;9.10;;;1.30;99.90;;;;;;5089882;28;20256;-78
2021/12/03 00:03:07;;;;;;;9.50;9.20;;;1.30;99.90;;;;;;5089335;28;20280;-78
2021/12/03 00:05:38;;;;;;;9.20;8.90;;;1.30;99.90;;;;;;5089034;28;20300;-78
2021/12/03 00:08:09;;;;;;;9.40;9.10;;;1.30;99.90;;;;;;5088056;28;20268;-77
2021/12/03 00:10:38;;;;;;;9.40;9.10;;;1.20;99.90;;;;;;5086862;28;20291;-76
2021/12/03 00:13:08;;;;;;;9.30;9.00;;;1.20;99.90;;;;;;5086576;28;20267;-78
2021/12/03 00:15:37;;;;;;;9.70;9.40;;;1.30;99.90;;;;;;5083857;28;20234;-78
2021/12/03 00:18:05;;;;;;;9.43;9.13;;;1.20;99.90;;;;;;5084754;28;20226;-78
2021/12/03 00:20:35;;;;;;;9.70;9.40;;;1.20;99.90;;;;;;5082462;28;20230;-78
2021/12/03 00:23:06;;;;;;;9.30;9.00;;;1.20;99.90;;;;;;5074914;28;20236;-78
2021/12/03 00:25:35;;;;;;;9.30;9.00;;;1.20;99.90;;;;;;5080799;28;20230;-76
2021/12/03 00:28:03;;;;;;;9.30;9.00;;;1.30;99.90;;;;;;5080818;28;20233;-78
2021/12/03 00:30:31;;;;;;;9.30;9.00;;;1.30;99.90;;;;;;5081075;28;20234;-78
2021/12/03 00:32:59;;;;;;;9.40;9.10;;;1.30;99.90;;;;;;5080886;28;20259;-78
2021/12/03 00:35:27;;;;;;;9.13;8.83;;;1.30;99.90;;;;;;5080230;28;20234;-78
2021/12/03 00:37:55;;;;;;;9.43;9.13;;;1.30;99.90;;;;;;5081794;28;20245;-78
2021/12/03 00:40:28;;;;;;;9.40;9.10;;;1.30;99.90;;;;;;5082450;28;20234;-77
2021/12/03 00:42:56;;;;;;;9.60;9.30;;;1.30;99.90;;;;;;5084216;28;20230;-76
2021/12/03 00:45:24;;;;;;;9.23;8.93;;;1.20;99.90;;;;;;5082300;28;20252;-78
2021/12/03 00:47:51;;;;;;;9.60;9.30;;;1.10;99.90;;;;;;5080367;28;20229;-78
2021/12/03 00:50:22;;;;;;;8.93;8.67;;;1.00;99.90;;;;;;5077447;28;20261;-78
2021/12/03 00:52:51;;;;;;;8.90;8.70;;;1.00;99.90;;;;;;5078686;28;20280;-77
2021/12/03 00:55:21;;;;;;;9.10;8.80;;;1.00;99.90;;;;;;5080262;28;20248;-78
2021/12/03 00:57:50;;;;;;;9.13;8.83;;;1.00;99.90;;;;;;5079806;28;20218;-78
2021/12/03 01:00:24;;;;;;;9.20;8.90;;;1.00;99.90;;;;;;5079500;28;20238;-77
2021/12/03 01:02:52;;;;;;;9.37;9.07;;;1.10;99.90;;;;;;5079295;28;20237;-78
2021/12/03 01:05:21;;;;;;;9.60;9.30;;;1.10;99.90;;;;;;5079606;28;20307;-78
2021/12/03 01:07:49;;;;;;;9.20;8.90;;;1.00;99.90;;;;;;5079960;28;20270;-78
2021/12/03 01:10:18;;;;;;;9.47;9.17;;;1.00;99.90;;;;;;5078867;28;20708;-77
2021/12/03 01:12:45;;;;;;;9.20;8.90;;;1.10;99.90;;;;;;5080950;28;20238;-77
2021/12/03 01:15:19;;;;;;;9.30;9.00;;;1.10;99.90;;;;;;5080066;28;20265;-77
2021/12/03 01:17:47;;;;;;;9.80;9.50;;;1.10;99.90;;;;;;5082471;28;20222;-76
2021/12/03 01:20:19;;;;;;;9.40;9.10;;;1.10;99.90;;;;;;5080558;28;20241;-76
2021/12/03 01:22:49;;;;;;;9.33;9.03;;;1.10;99.90;;;;;;5078270;28;20238;-76
2021/12/03 01:25:19;;;;;;;9.50;9.20;;;1.10;99.90;;;;;;5077841;28;20234;-77
2021/12/03 01:27:47;;;;;;;9.47;9.17;;;1.10;99.90;;;;;;5078342;28;20287;-76
2021/12/03 01:30:20;;;;;;;8.90;8.70;;;1.10;99.90;;;;;;5078156;28;20238;-76
2021/12/03 01:32:49;;;;;;;9.47;9.17;;;1.10;99.90;;;;;;5079492;28;20237;-77
2021/12/03 01:35:18;;;;;;;9.80;9.50;;;1.10;99.90;;;;;;5079623;28;20234;-76
2021/12/03 01:37:47;;;;;;;9.50;9.20;;;1.20;99.90;;;;;;5078828;28;20222;-76
2021/12/03 01:40:18;;;;;;;9.40;9.10;;;1.20;99.90;;;;;;5080066;28;20261;-75
2021/12/03 01:42:47;;;;;;;9.47;9.17;;;1.20;99.90;;;;;;5093050;27;20291;-77
2021/12/03 01:45:18;;;;;;;9.63;9.33;;;1.20;99.90;;;;;;5077526;28;20269;-77
2021/12/03 01:47:48;;;;;;;9.70;9.40;;;1.20;99.90;;;;;;5077422;28;20226;-76
2021/12/03 01:50:18;;;;;;;9.43;9.13;;;1.10;99.90;;;;;;5077358;28;20234;-77
2021/12/03 01:52:46;;;;;;;9.40;9.10;;;1.10;99.90;;;;;;5076223;28;20230;-76
2021/12/03 01:55:15;;;;;;;9.57;9.27;;;1.10;99.90;;;;;;5076999;28;20296;-76
2021/12/03 01:57:43;;;;;;;9.27;8.97;;;1.10;99.90;;;;;;5077748;28;20253;-76
2021/12/03 02:00:18;;;;;;;9.30;9.00;;;1.20;99.90;;;;;;5076878;28;20296;-77
2021/12/03 02:02:46;;;;;;;9.60;9.30;;;1.20;99.90;;;;;;5077642;28;20275;-77
2021/12/03 02:05:15;;;;;;;9.40;9.10;;;1.20;99.90;;;;;;5076958;28;20238;-77
2021/12/03 02:07:44;;;;;;;9.47;9.17;;;1.20;99.90;;;;;;5077599;28;20226;-76
2021/12/03 02:10:13;;;;;;;9.50;9.20;;;1.20;99.90;;;;;;5076684;28;20246;-77
2021/12/03 02:12:41;;;;;;;9.80;9.50;;;1.20;99.90;;;;;;5077396;28;20238;-76
2021/12/03 02:15:10;;;;;;;10.00;9.70;;;1.20;99.90;;;;;;5075895;28;20243;-76
2021/12/03 02:17:40;;;;;;;9.80;9.50;;;1.20;99.90;;;;;;5077130;28;20234;-76
2021/12/03 02:20:11;;;;;;;9.97;9.67;;;1.30;99.90;;;;;;5076640;28;20253;-77
2021/12/03 02:22:42;;;;;;;9.90;9.60;;;1.30;99.90;;;;;;5077272;28;20237;-76
2021/12/03 02:25:13;;;;;;;9.50;9.20;;;1.20;99.90;;;;;;5076715;28;20249;-75
2021/12/03 02:27:41;;;;;;;9.70;9.40;;;1.20;99.90;;;;;;5077052;28;20300;-77
2021/12/03 02:30:11;;;;;;;9.60;9.30;;;1.20;99.90;;;;;;5076130;28;20238;-76
2021/12/03 02:32:39;;;;;;;9.43;9.13;;;1.20;99.90;;;;;;5077245;28;20230;-77
2021/12/03 02:35:09;;;;;;;9.40;9.10;;;1.20;99.90;;;;;;5076477;28;20233;-77
2021/12/03 02:37:37;;;;;;;8.73;8.53;;;1.20;99.90;;;;;;5077551;28;20380;-76
2021/12/03 02:40:13;;;;;;;9.23;8.93;;;1.20;99.90;;;;;;5078685;28;20258;-75
2021/12/03 02:42:42;;;;;;;9.40;9.10;;;1.20;99.90;;;;;;5081874;28;20261;-76
2021/12/03 02:45:11;;;;;;;9.50;9.20;;;1.10;99.90;;;;;;5080315;28;20261;-77
2021/12/03 02:47:39;;;;;;;9.53;9.23;;;1.10;99.90;;;;;;5080690;28;20230;-77
2021/12/03 02:50:09;;;;;;;9.20;8.90;;;1.10;99.90;;;;;;5078663;28;20302;-77
2021/12/03 02:52:37;;;;;;;9.30;9.00;;;1.10;99.90;;;;;;5076937;28;20324;-78
2021/12/03 02:55:07;;;;;;;9.60;9.30;;;1.10;99.90;;;;;;5077830;28;20253;-77
2021/12/03 02:57:35;;;;;;;9.27;8.97;;;1.10;99.90;;;;;;5079217;28;20226;-77
2021/12/03 03:00:05;;;;;;;9.30;9.00;;;1.10;99.90;;;;;;5078558;28;20246;-78
2021/12/03 03:02:33;;;;;;;9.27;8.97;;;1.10;99.90;;;;;;5083059;28;20256;-76
2021/12/03 03:05:00;;;;;;;9.67;9.37;;;1.10;99.90;;;;;;5082625;28;20356;-77
2021/12/03 03:07:29;;;;;;;9.60;9.30;;;1.10;99.90;;;;;;5086481;28;20219;-77
2021/12/03 03:09:57;;;;;;;9.40;9.10;;;1.10;99.90;;;;;;5083709;28;20800;-76
2021/12/03 03:12:27;;;;;;;9.70;9.40;;;1.10;99.90;;;;;;5078707;28;20315;-77
2021/12/03 03:14:59;;;;;;;9.43;9.13;;;1.10;99.90;;;;;;5077018;28;20287;-77
2021/12/03 03:17:31;;;;;;;9.50;9.20;;;1.20;99.90;;;;;;5077543;28;20268;-77
2021/12/03 03:20:01;;;;;;;9.90;9.60;;;1.20;99.90;;;;;;5076817;28;20246;-77
2021/12/03 03:22:29;;;;;;;9.30;9.00;;;1.20;99.90;;;;;;5077023;28;20647;-77
2021/12/03 03:25:00;;;;;;;9.57;9.27;;;1.30;99.90;;;;;;5076269;28;20265;-77
2021/12/03 03:27:31;;;;;;;9.40;9.10;;;1.30;99.90;;;;;;5077544;28;20222;-77
2021/12/03 03:29:59;;;;;;;9.60;9.30;;;1.30;99.90;;;;;;5076580;28;20709;-77
2021/12/03 03:32:28;;;;;;;9.47;9.17;;;1.40;99.90;;;;;;5077735;28;20276;-77
2021/12/03 03:34:56;;;;;;;9.23;8.93;;;1.40;99.90;;;;;;5076815;28;20238;-77
2021/12/03 03:37:24;;;;;;;9.43;9.13;;;1.40;99.90;;;;;;5077299;28;20226;-77
2021/12/03 03:39:51;;;;;;;9.83;9.53;;;1.40;99.90;;;;;;5076428;28;20268;-76
2021/12/03 03:42:20;;;;;;;9.40;9.10;;;1.30;99.90;;;;;;5077429;28;20233;-78
2021/12/03 03:44:49;;;;;;;9.40;9.10;;;1.30;99.90;;;;;;5076955;28;20273;-77
2021/12/03 03:47:16;;;;;;;9.43;9.13;;;1.40;99.90;;;;;;5078842;28;20226;-78
2021/12/03 03:49:44;;;;;;;9.40;9.10;;;1.30;99.90;;;;;;5078458;28;20258;-77
2021/12/03 03:52:12;;;;;;;9.17;8.87;;;1.40;99.90;;;;;;5075407;28;20352;-77
2021/12/03 03:54:40;;;;;;;9.40;9.10;;;1.40;99.90;;;;;;5077071;28;20712;-77
2021/12/03 03:57:08;;;;;;;9.43;9.13;;;1.40;99.90;;;;;;5076849;28;20253;-78
2021/12/03 03:59:35;;;;;;;9.50;9.20;;;1.30;99.90;;;;;;5076779;28;20257;-78
2021/12/03 04:02:05;;;;;;;9.80;9.50;;;1.30;99.90;;;;;;5077009;28;20288;-77
2021/12/03 04:04:33;;;;;;;9.77;9.47;;;1.30;99.90;;;;;;5099152;22;20233;-80
2021/12/03 04:07:00;;;;;;;10.00;9.70;;;1.30;99.90;;;;;;5086785;28;20246;-80
2021/12/03 04:09:28;;;;;;;9.60;9.30;;;1.30;99.90;;;;;;5084501;28;20285;-80
2021/12/03 04:11:55;;;;;;;9.57;9.27;;;1.30;99.90;;;;;;5080143;28;20272;-80
2021/12/03 04:14:23;;;;;;;9.37;9.07;;;1.30;99.90;;;;;;5083737;28;20283;-80
2021/12/03 04:16:51;;;;;;;9.30;9.00;;;1.30;99.90;;;;;;5100304;28;20226;-79
2021/12/03 04:19:20;;;;;;;9.43;9.13;;;1.20;99.90;;;;;;5099534;28;20234;-79
2021/12/03 04:21:48;;;;;;;9.60;9.30;;;1.30;99.90;;;;;;5101806;28;20347;-80
2021/12/03 04:24:16;;;;;;;9.80;9.50;;;1.20;99.90;;;;;;5101502;28;20238;-80
2021/12/03 04:26:43;;;;;;;9.50;9.20;;;1.20;99.90;;;;;;5101472;28;20213;-80
2021/12/03 04:29:11;;;;;;;9.20;8.90;;;1.10;99.90;;;;;;5100083;28;20269;-79
2021/12/03 04:31:39;;;;;;;8.90;8.70;;;1.10;99.90;;;;;;5102129;28;20258;-79
2021/12/03 04:34:07;;;;;;;8.80;8.60;;;1.10;99.90;;;;;;5105088;28;20283;-80
2021/12/03 04:36:36;;;;;;;8.73;8.53;;;1.10;99.90;;;;;;5104561;28;20276;-80
2021/12/03 04:39:05;;;;;;;9.40;9.10;;;1.10;99.90;;;;;;5084090;28;20237;-79
2021/12/03 04:41:33;;;;;;;9.10;8.80;;;1.10;99.90;;;;;;5084670;28;20257;-79
2021/12/03 04:44:00;;;;;;;9.13;8.83;;;1.00;99.90;;;;;;5084118;28;20226;-79
2021/12/03 04:46:28;;;;;;;9.23;8.93;;;1.00;99.90;;;;;;5084108;28;20269;-79
2021/12/03 04:48:55;;;;;;;9.50;9.20;;;1.00;99.90;;;;;;5084124;28;20269;-79
2021/12/03 04:51:23;;;;;;;9.30;9.00;;;1.00;99.90;;;;;;5085181;28;20232;-79
2021/12/03 04:53:52;;;;;;;9.60;9.30;;;1.00;99.90;;;;;;5095224;28;20252;-77
2021/12/03 04:56:20;;;;;;;9.47;9.17;;;1.00;99.90;;;;;;5094719;28;20237;-78
2021/12/03 04:58:48;;;;;;;9.33;9.03;;;1.00;99.90;;;;;;5087200;28;20248;-79
2021/12/03 05:01:15;;;;;;;9.30;9.00;;;1.00;99.90;;;;;;5088049;28;20395;-79
2021/12/03 05:03:43;;;;;;;9.37;9.07;;;1.00;99.90;;;;;;5092388;28;20222;-79
2021/12/03 05:06:15;;;;;;;9.20;8.90;;;1.00;99.90;;;;;;5096411;28;20214;-78
2021/12/03 05:08:43;;;;;;;9.23;8.93;;;1.10;99.90;;;;;;5098708;28;20238;-78
2021/12/03 05:11:12;;;;;;;9.10;8.80;;;1.10;99.90;;;;;;5098431;28;20292;-77
2021/12/03 05:13:40;;;;;;;9.20;8.90;;;1.10;99.90;;;;;;5098782;28;20228;-77
2021/12/03 05:16:08;;;;;;;9.33;9.03;;;1.10;99.90;;;;;;5098152;28;20242;-77
2021/12/03 05:18:35;;;;;;;9.33;9.03;;;1.20;99.90;;;;;;5099454;28;20241;-77
2021/12/03 05:21:04;;;;;;;8.73;8.53;;;1.10;99.90;;;;;;5115562;27;20221;-77
2021/12/03 05:23:33;;;;;;;9.30;9.00;;;1.10;99.90;;;;;;5119568;27;20248;-77
2021/12/03 05:26:01;;;;;;;9.30;9.00;;;1.00;99.90;;;;;;5119384;28;20206;-77
2021/12/03 05:28:31;;;;;;;9.20;8.90;;;1.00;99.90;;;;;;5119186;28;20229;-78
2021/12/03 05:30:59;;;;;;;9.23;8.93;;;0.90;99.90;;;;;;5108056;27;20259;-79
2021/12/03 05:33:26;;;;;;;8.97;8.77;;;0.90;99.90;;;;;;5101250;28;20250;-78
2021/12/03 05:35:54;;;;;;;9.40;9.10;;;0.90;99.90;;;;;;5100312;28;20237;-79
2021/12/03 05:38:22;;;;;;;9.30;9.00;;;0.90;99.90;;;;;;5100795;28;20233;-79
2021/12/03 05:40:49;;;;;;;9.10;8.80;;;0.90;99.90;;;;;;5100960;28;20259;-77
2021/12/03 05:43:17;;;;;;;9.13;8.83;;;0.90;99.90;;;;;;5101099;28;20225;-79
2021/12/03 05:45:47;;;;;;;9.07;8.77;;;0.90;99.90;;;;;;5100421;28;20237;-78
2021/12/03 05:48:16;;;;;;;9.20;8.90;;;0.90;99.90;;;;;;5099856;28;20256;-79
2021/12/03 05:50:45;;;;;;;8.90;8.70;;;1.00;99.90;;;;;;5099635;28;20237;-79
2021/12/03 05:53:12;;;;;;;9.07;8.80;;;1.00;99.90;;;;;;5099726;28;20787;-79
2021/12/03 05:55:40;;;;;;;9.00;8.80;;;0.90;99.90;;;;;;5100681;28;20229;-79
2021/12/03 05:58:08;;;;;;;9.10;8.80;;;0.90;99.90;;;;;;5101287;28;20252;-79
2021/12/03 06:00:41;;;;;;;9.10;8.80;;;0.90;99.90;;;;;;5105220;28;20239;-77
2021/12/03 06:03:11;;;;;;;9.07;8.80;;;0.90;99.90;;;;;;5108126;28;20263;-80
2021/12/03 06:05:40;;;;;;;9.60;9.30;;;0.90;99.90;;;;;;5099368;28;20649;-80
2021/12/03 06:08:08;;;;;;;9.30;9.00;;;1.00;99.90;;;;;;5100458;28;20283;-79
2021/12/03 06:10:37;;;;;;;9.47;9.17;;;0.90;99.90;;;;;;5107692;28;20236;-80
2021/12/03 06:13:05;;;;;;;9.50;9.20;;;1.00;99.90;;;;;;5105524;28;20241;-80
2021/12/03 06:15:33;;;;;;;9.30;9.00;;;1.00;99.90;;;;;;5102001;28;20230;-79
2021/12/03 06:18:00;;;;;;;9.40;9.10;;;1.00;99.90;;;;;;5101909;28;20254;-79
2021/12/03 06:20:30;;;;;;;9.47;9.17;;;1.00;99.90;;;;;;5101895;28;20230;-79
2021/12/03 06:22:58;;;;;;;9.30;9.00;;;1.00;99.90;;;;;;5101671;28;20264;-78
2021/12/03 06:25:26;;;;;;;9.20;8.90;;;1.00;99.90;;;;;;5102284;28;20233;-79
2021/12/03 06:27:57;;;;;;;9.57;9.27;;;0.90;99.90;;;;;;5105289;28;20298;-79
2021/12/03 06:30:26;;;;;;;9.40;9.10;;;0.80;99.90;;;;;;5103834;28;20240;-79
2021/12/03 06:32:54;;;;;;;9.50;9.20;;;0.80;99.90;;;;;;5100580;28;20295;-78
2021/12/03 06:35:22;;;;;;;8.80;8.60;;;0.80;99.90;;;;;;5099245;28;20230;-78
2021/12/03 06:37:52;;;;;;;9.50;9.20;;;0.80;99.90;;;;;;5099928;28;20294;-79
2021/12/03 06:40:23;;;;;;;9.90;9.60;;;0.70;99.90;;;;;;5114261;28;20230;-79
2021/12/03 06:42:51;;;;;;;9.73;9.43;;;0.70;99.90;;;;;;5109894;28;20213;-79
2021/12/03 06:45:20;;;;;;;9.93;9.63;;;0.70;99.90;;;;;;5105515;28;20225;-80
2021/12/03 06:47:48;;;;;;;9.73;9.43;;;0.70;99.90;;;;;;5112073;28;20236;-79
2021/12/03 06:50:18;;;;;;;9.73;9.43;;;0.70;99.90;;;;;;5110293;28;20239;-79
2021/12/03 06:52:49;;;;;;;9.60;9.30;;;0.70;99.90;;;;;;5099168;28;20233;-80
2021/12/03 06:55:18;;;;;;;9.80;9.50;;;0.70;99.90;;;;;;5098983;28;20335;-80
2021/12/03 06:57:46;;;;;;;9.93;9.63;;;0.70;99.90;;;;;;5099400;28;20225;-80
2021/12/03 07:00:16;;;;;;;9.67;9.37;;;0.70;99.90;;;;;;5098223;28;20386;-80
2021/12/03 07:02:44;;;;;;;9.57;9.27;;;0.70;99.90;;;;;;5099741;28;20221;-80
2021/12/03 07:05:13;;;;;;;9.70;9.40;;;0.70;99.90;;;;;;5098772;28;20233;-80
2021/12/03 07:07:45;;;;;;;9.50;9.20;;;0.70;99.90;;;;;;5099964;28;20229;-83
2021/12/03 07:10:12;;;;;;;9.77;9.47;;;0.70;99.90;;;;;;5098925;28;20229;-82
2021/12/03 07:12:44;;;;;;;9.83;9.53;;;0.60;99.90;;;;;;5099463;28;20326;-82
2021/12/03 07:15:12;;;;;;;9.83;9.53;;;0.60;99.90;;;;;;5099642;28;20244;-81
2021/12/03 07:17:40;;;;;;;9.80;9.50;;;0.60;99.90;;;;;;5097621;28;20423;-80
2021/12/03 07:20:10;;;;;;;9.60;9.30;;;0.60;99.90;;;;;;5098622;28;20234;-82
2021/12/03 07:22:39;;;;;;;9.40;9.10;;;0.70;99.90;;;;;;5098991;28;20281;-82
2021/12/03 07:25:08;;;;;;;9.30;9.00;;;0.70;99.90;;;;;;5099153;28;20275;-82
2021/12/03 07:27:38;;;;;;;9.63;9.33;;;0.80;99.90;;;;;;5097980;28;20230;-83
2021/12/03 07:30:17;;;;;;;9.73;9.43;;;0.80;99.90;;;;;;5098136;28;20229;-81
2021/12/03 07:32:46;;;;;;;9.43;9.13;;;0.80;99.90;;;;;;5097832;28;20237;-81
2021/12/03 07:35:16;;;;;;;9.60;9.30;;;0.80;99.90;;;;;;5098281;28;20232;-82
2021/12/03 07:37:45;;;;;;;9.50;9.20;;;0.80;99.90;;;;;;5098898;28;20221;-80
2021/12/03 07:40:14;;;;;;;9.70;9.40;;;0.80;99.90;;;;;;5096633;28;20297;-81
2021/12/03 07:42:43;;;;;;;9.67;9.37;;;0.80;99.90;;;;;;5097423;28;20229;-80
2021/12/03 07:45:16;;;;;;;10.00;9.70;;;0.80;99.90;;;;;;5096834;28;20270;-82
2021/12/03 07:47:44;;;;;;;9.77;9.47;;;0.80;99.90;;;;;;5098498;28;20238;-80
2021/12/03 07:50:13;;;;;;;9.53;9.23;;;0.80;99.90;;;;;;5095309;28;20232;-81
2021/12/03 07:52:41;;;;;;;9.90;9.60;;;0.80;99.90;;;;;;5098083;28;20225;-82
2021/12/03 07:55:10;;;;;;;9.73;9.43;;;0.80;99.90;;;;;;5098235;28;20294;-82
2021/12/03 07:57:41;;;;;;;9.73;9.43;;;0.90;99.90;;;;;;5101087;28;20358;-81
2021/12/03 08:00:12;;;;;;;9.30;9.00;;;0.90;99.90;;;;;;5100485;28;20225;-82
2021/12/03 08:02:40;;;;;;;9.60;9.30;;;0.90;99.90;;;;;;5102335;28;21016;-81
2021/12/03 08:05:09;;;;;;;9.20;8.90;;;0.90;99.90;;;;;;5101695;28;20229;-81
2021/12/03 08:07:39;;;;;;;9.20;8.90;;;0.90;99.90;;;;;;5105008;28;20228;-81
2021/12/03 08:10:08;;;;;;;9.27;8.97;;;1.00;99.90;;;;;;5104294;28;20255;-81
2021/12/03 08:12:37;;;;;;;9.40;9.10;;;0.90;99.90;;;;;;5098200;28;20233;-78
2021/12/03 08:15:08;;;;;;;9.20;8.90;;;1.00;99.90;;;;;;5101228;28;20233;-80
2021/12/03 08:17:40;;;;;;;9.20;8.90;;;1.00;99.90;;;;;;5100212;28;20279;-80
2021/12/03 08:20:11;;;;;;;9.20;8.90;;;1.00;99.90;;;;;;5102638;28;20236;-84
2021/12/03 08:25:43;;;;;;;8.83;8.63;;;1.10;99.90;;;;;;5112479;28;20225;-83
2021/12/03 08:28:11;;;;;;;9.13;8.83;;;1.10;99.90;;;;;;5113292;28;20248;-82
2021/12/03 08:30:40;;;;;;;9.10;8.80;;;1.10;99.90;;;;;;5110948;28;20267;-82
2021/12/03 08:33:18;;;;;;;9.13;8.83;;;1.10;99.90;;;;;;5104027;28;20241;-82
2021/12/03 08:35:47;;;;;;;9.40;9.10;;;1.20;99.90;;;;;;5117319;28;20225;-81
2021/12/03 08:38:18;;;;;;;9.30;9.00;;;1.20;99.90;;;;;;5099456;28;20241;-81
2021/12/03 08:40:46;;;;;;;9.40;9.10;;;1.30;99.90;;;;;;5101936;28;20229;-81
2021/12/03 08:43:16;;;;;;;9.23;8.93;;;1.40;99.90;;;;;;5101279;28;20238;-81
2021/12/03 08:45:47;;;;;;;9.57;9.27;;;1.30;99.90;;;;;;5101660;28;20696;-82
2021/12/03 08:56:37;;;;;;;9.70;9.40;;;1.50;99.90;;;;;;5058521;28;20683;-82
2021/12/03 08:59:05;;;;;;;9.97;9.67;;;1.50;99.90;;;;;;5088111;28;20226;-82
2021/12/03 09:01:34;;;;;;;9.33;9.03;;;1.50;99.90;;;;;;5101073;28;20705;-82
2021/12/03 09:04:10;;;;;;;9.30;9.00;;;1.50;99.90;;;;;;5101826;28;20248;-83
2021/12/03 09:06:42;;;;;;;9.30;9.00;;;1.50;99.90;;;;;;5100860;28;20307;-82
2021/12/03 09:09:11;;;;;;;9.40;9.10;;;1.60;99.90;;;;;;5100936;28;20320;-82
2021/12/03 09:11:41;;;;;;;9.43;9.13;;;1.60;99.90;;;;;;5098120;28;20268;-81
2021/12/03 09:14:15;;;;;;;9.20;8.90;;;1.60;99.90;;;;;;5101175;28;20238;-82
2021/12/03 09:16:45;;;;;;;9.63;9.33;;;1.50;99.90;;;;;;5101603;28;20225;-82
2021/12/03 09:19:23;;;;;;;9.23;8.93;;;1.50;99.90;;;;;;5101884;28;20293;-82
2021/12/03 09:21:50;;;;;;;9.60;9.30;;;1.40;99.90;;;;;;5101091;28;20387;-82
2021/12/03 09:24:22;;;;;;;9.37;9.07;;;1.40;99.90;;;;;;5100776;28;20240;-82
2021/12/03 09:26:57;;;;;;;9.30;9.00;;;1.40;99.90;;;;;;5100980;28;20232;-83
2021/12/03 09:29:29;;;;;;;9.50;9.20;;;1.30;99.90;;;;;;5101044;28;20282;-82
2021/12/03 09:31:58;;;;;;;9.47;9.17;;;1.40;99.90;;;;;;5101412;28;20233;-82
2021/12/03 09:34:35;;;;;;;9.27;8.97;;;1.40;99.90;;;;;;5102269;28;20248;-82
2021/12/03 09:37:04;;;;;;;9.33;9.03;;;1.40;99.90;;;;;;5101124;28;20217;-81
2021/12/03 09:39:31;;;;;;;9.30;9.00;;;1.50;99.90;;;;;;5101034;28;20233;-83
2021/12/03 09:42:01;;;;;;;9.00;8.80;;;1.50;99.90;;;;;;5101420;28;20247;-82
2021/12/03 09:44:31;;;;;;;9.20;8.90;;;1.50;99.90;;;;;;5100951;28;20230;-83
2021/12/03 09:47:01;;;;;;;9.30;9.00;;;1.60;99.90;;;;;;5102032;28;20229;-82
2021/12/03 09:49:39;;;;;;;8.83;8.63;;;1.60;99.90;;;;;;5101462;28;20256;-83
2021/12/03 09:52:22;;;;;;;8.90;8.70;;;1.70;99.90;;;;;;5101158;28;20251;-83
2021/12/03 09:54:57;;;;;;;8.70;8.50;;;1.90;99.90;;;;;;5101379;28;20872;-83
2021/12/03 09:57:37;;;;;;;8.77;8.57;;;2.00;99.90;;;;;;5101138;28;20237;-81
2021/12/03 10:03:03;;;;;;;9.03;8.83;;;2.20;99.90;;;;;;5098287;28;20319;-83
2021/12/03 10:14:13;;;;;;;8.60;8.40;;;2.60;99.90;;;;;;5101946;28;20229;-83
2021/12/03 10:17:17;;;;;;;8.50;8.30;;;2.60;99.90;;;;;;5101302;28;20226;-84
2021/12/03 10:19:57;;;;;;;8.63;8.43;;;2.50;99.90;;;;;;5100230;28;20251;-82
2021/12/03 10:34:27;;;;;;;9.20;8.90;;;2.80;99.90;;;;;;5101510;28;20260;-82
2021/12/03 10:37:15;;;;;;;8.63;8.43;;;2.80;99.90;;;;;;5100256;28;20241;-82
2021/12/03 10:42:48;;;;;;;9.17;8.87;;;2.90;99.90;;;;;;5097512;28;20217;-83
2021/12/03 10:45:35;;;;;;;8.90;8.70;;;2.80;99.90;;;;;;5107493;28;20247;-83
2021/12/03 10:53:37;;;;;;;9.27;8.97;;;2.50;99.90;;;;;;5097426;28;20225;-83
2021/12/03 10:56:36;;;;;;;9.27;8.97;;;2.40;99.90;;;;;;5100944;28;20233;-82
2021/12/03 11:13:44;;;;;;;9.37;9.07;;;2.20;99.90;;;;;;5100435;28;20224;-82
2021/12/03 11:30:42;;;;;;;8.50;8.30;;;2.20;99.90;;;;;;5100090;28;20213;-83
2021/12/03 11:33:54;;;;;;;8.70;8.50;;;2.10;99.90;;;;;;5099624;28;20283;-85
2021/12/03 14:02:26;;;;;;;8.77;8.57;;;2.90;99.90;;;;;;5110946;28;20250;-83
2021/12/03 14:05:14;;;;;;;8.93;8.73;;;2.70;99.90;;;;;;5105239;28;20243;-83
2021/12/03 14:08:18;;;;;;;8.80;8.60;;;2.70;99.90;;;;;;5104524;28;20225;-83
2021/12/03 14:44:59;;;;;;;8.10;7.90;;;2.20;99.90;;;;;;5098257;28;20229;-83
2021/12/03 14:48:04;;;;;;;8.50;8.30;;;2.10;99.90;;;;;;5101408;28;20351;-83
2021/12/03 14:51:01;;;;;;;8.53;8.33;;;2.00;99.90;;;;;;5100099;28;20232;-83
2021/12/03 14:54:00;;;;;;;8.73;8.53;;;1.90;99.90;;;;;;5100255;28;20237;-83
2021/12/03 14:56:35;;;;;;;8.80;8.60;;;1.80;99.90;;;;;;5099883;28;20300;-83
2021/12/03 15:02:01;;;;;;;8.73;8.53;;;1.70;99.90;;;;;;5098678;28;20234;-83
2021/12/03 15:04:50;;;;;;;8.67;8.47;;;1.70;99.90;;;;;;5100068;28;20245;-83
2021/12/03 15:10:01;;;;;;;8.83;8.63;;;1.70;99.90;;;;;;5099887;28;20316;-83
2021/12/03 15:18:48;;;;;;;8.50;8.30;;;1.60;99.90;;;;;;5100764;28;20237;-83
2021/12/03 15:32:38;;;;;;;8.30;8.10;;;1.30;99.90;;;;;;5085016;28;20229;-83
2021/12/03 15:35:14;;;;;;;8.70;8.50;;;1.30;99.90;;;;;;5099855;28;20238;-84
2021/12/03 16:08:37;;;;;;;8.17;7.97;;;1.00;99.90;;;;;;5100213;28;20304;-83
2021/12/03 16:11:19;;;;;;;8.10;7.90;;;1.00;99.90;;;;;;5100360;28;20229;-82
2021/12/03 16:14:02;;;;;;;8.20;8.00;;;1.00;99.90;;;;;;5100654;28;20270;-80
2021/12/03 16:22:23;;;;;;;8.50;8.30;;;1.00;99.90;;;;;;5089306;28;20312;-82
2021/12/03 16:47:34;;;;;;;8.43;8.23;;;0.80;99.90;;;;;;5101238;28;20229;-82
2021/12/03 16:52:52;;;;;;;8.17;7.97;;;0.90;99.90;;;;;;5103080;28;20224;-81
2021/12/03 16:55:22;;;;;;;8.03;7.83;;;0.80;99.90;;;;;;5104240;28;20229;-81
2021/12/03 16:57:54;;;;;;;8.10;7.90;;;0.80;99.90;;;;;;5103761;28;20252;-81
2021/12/03 17:00:28;;;;;;;8.07;7.87;;;0.80;99.90;;;;;;5102877;28;20233;-81
2021/12/03 17:03:00;;;;;;;8.07;7.87;;;0.80;99.90;;;;;;5103970;28;20323;-81
2021/12/03 17:05:53;;;;;;;8.50;8.30;;;0.80;99.90;;;;;;5102498;28;20240;-81
2021/12/03 17:08:45;;;;;;;8.60;8.40;;;0.80;99.90;;;;;;5102705;28;20290;-81
2021/12/03 17:14:12;;;;;;;8.00;7.80;;;0.80;99.90;;;;;;5101664;28;20232;-81
2021/12/03 17:17:07;;;;;;;8.00;7.80;;;0.80;99.90;;;;;;5102801;28;20231;-82
2021/12/03 17:20:18;;;;;;;8.10;7.90;;;0.80;99.90;;;;;;5102450;28;20225;-81
2021/12/03 17:45:49;;;;;;;8.50;8.30;;;0.80;99.90;;;;;;5101164;28;20220;-81
2021/12/03 17:48:32;;;;;;;8.40;8.20;;;0.80;99.90;;;;;;5101381;28;20232;-81
2021/12/03 17:56:31;;;;;;;8.50;8.30;;;0.70;99.90;;;;;;5081759;28;20231;-80
2021/12/03 17:59:08;;;;;;;8.53;8.33;;;0.70;99.90;;;;;;5101251;28;20331;-81
2021/12/03 18:01:44;;;;;;;8.50;8.30;;;0.70;99.90;;;;;;5100626;28;20278;-81
2021/12/03 18:04:21;;;;;;;8.50;8.30;;;0.70;99.90;;;;;;5099514;28;20232;-80
2021/12/03 18:06:58;;;;;;;8.27;8.07;;;0.60;99.90;;;;;;5100859;28;20235;-81
2021/12/03 18:09:43;;;;;;;8.37;8.17;;;0.60;99.90;;;;;;5099678;28;20232;-82
2021/12/03 18:15:34;;;;;;;7.97;7.77;;;0.60;99.90;;;;;;5036867;28;20238;-81
2021/12/03 18:18:24;;;;;;;7.87;7.67;;;0.60;99.90;;;;;;5096927;28;20232;-81
2021/12/03 18:43:31;;;;;;;8.20;8.00;;;0.50;99.90;;;;;;5099844;28;20276;-82
2021/12/03 18:46:25;;;;;;;8.10;7.90;;;0.40;99.90;;;;;;5098151;28;20213;-81
2021/12/03 18:49:05;;;;;;;8.10;7.90;;;0.40;99.90;;;;;;5099045;28;20233;-82
2021/12/03 18:51:46;;;;;;;8.13;7.93;;;0.40;99.90;;;;;;5099456;28;20221;-81
2021/12/03 18:57:09;;;;;;;8.20;8.00;;;0.30;99.90;;;;;;5084676;28;20214;-82
2021/12/03 18:59:41;;;;;;;7.87;7.67;;;0.20;99.90;;;;;;5099385;28;20374;-82
2021/12/03 19:02:09;;;;;;;8.10;7.90;;;0.20;99.90;;;;;;5100517;28;20236;-82
2021/12/03 19:04:49;;;;;;;8.17;7.97;;;0.10;99.90;;;;;;5099339;28;20263;-81
2021/12/03 19:07:20;;;;;;;8.20;8.00;;;0.10;99.90;;;;;;5099624;28;20290;-82
2021/12/03 19:09:52;;;;;;;8.50;8.30;;;0.10;99.90;;;;;;5099513;28;20264;-81
2021/12/03 19:12:24;;;;;;;8.43;8.23;;;0.10;99.90;;;;;;5098997;28;20224;-81
2021/12/03 19:14:55;;;;;;;8.50;8.30;;;0.00;99.90;;;;;;5098668;28;20266;-82
2021/12/03 19:17:23;;;;;;;8.50;8.30;;;0.00;99.90;;;;;;5099151;28;20231;-81
2021/12/03 19:19:57;;;;;;;8.80;8.60;;;0.00;99.90;;;;;;5098760;28;20256;-80
2021/12/03 19:22:26;;;;;;;8.50;8.30;;;0.00;99.90;;;;;;5100077;28;20236;-80
2021/12/03 19:24:57;;;;;;;8.40;8.20;;;0.00;99.90;;;;;;5099394;28;20242;-80
2021/12/03 19:27:27;;;;;;;8.17;7.97;;;0.00;99.90;;;;;;5099583;28;20242;-80
2021/12/03 19:30:00;;;;;;;8.60;8.40;;;0.00;99.90;;;;;;5098931;28;20237;-82
2021/12/03 19:32:31;;;;;;;8.40;8.20;;;0.00;99.90;;;;;;5099867;28;20231;-81
2021/12/03 19:35:01;;;;;;;8.37;8.17;;;0.00;99.90;;;;;;5099133;28;20298;-81
2021/12/03 19:37:29;;;;;;;8.53;8.33;;;0.10;99.90;;;;;;5099362;28;20290;-81
2021/12/03 19:39:59;;;;;;;8.63;8.43;;;0.10;99.90;;;;;;5098382;28;20244;-80
2021/12/03 19:42:31;;;;;;;8.63;8.43;;;0.10;99.90;;;;;;5099586;28;20747;-80
2021/12/03 19:45:03;;;;;;;8.97;8.77;;;0.10;99.90;;;;;;5098345;28;20240;-80
2021/12/03 19:47:34;;;;;;;8.80;8.60;;;0.10;99.90;;;;;;5098732;28;20223;-80
2021/12/03 19:50:17;;;;;;;8.60;8.40;;;0.10;99.90;;;;;;5097805;28;20267;-80
2021/12/03 19:52:46;;;;;;;8.60;8.40;;;0.20;99.90;;;;;;5099336;28;20229;-79
2021/12/03 19:55:14;;;;;;;8.40;8.20;;;0.20;99.90;;;;;;5099096;28;20311;-80
2021/12/03 19:57:42;;;;;;;8.57;8.37;;;0.20;99.90;;;;;;5098631;28;20220;-80